createdAt,value
2023-03-11T00:03:10.312Z,97490.13
2023-03-11T00:18:13.505Z,97478.02
2023-03-11T00:33:17.166Z,97451.36
2023-03-11T00:48:20.334Z,97437.08
2023-03-11T01:03:23.595Z,97420.38
2023-03-11T01:18:27.289Z,97403.85
2023-03-11T01:33:30.454Z,97405.86
2023-03-11T01:48:33.785Z,97399.21
2023-03-11T02:03:41.157Z,97394.02
2023-03-11T02:18:44.669Z,97386.11
2023-03-11T02:33:51.099Z,97385.98
2023-03-11T02:48:56.512Z,97397.87
2023-03-11T03:03:59.779Z,97404.29
2023-03-11T03:19:04.682Z,97415.04
2023-03-11T03:34:08.886Z,97428.76
2023-03-11T03:49:13.324Z,97441.16
2023-03-11T04:04:17.515Z,97458.71
2023-03-11T04:19:21.933Z,97455.24
2023-03-11T04:34:25.216Z,97465.59
2023-03-11T04:49:31.526Z,97490.11
2023-03-11T05:04:35.384Z,97504.37
2023-03-11T05:19:39.106Z,97513.27
2023-03-11T05:34:50.018Z,97537.27
2023-03-11T05:49:53.441Z,97553.05
2023-03-11T06:04:56.930Z,97558.04
2023-03-11T06:20:00.828Z,97580.71
2023-03-11T06:35:06.179Z,97609.54
2023-03-11T06:50:10.941Z,97644.34
2023-03-11T07:05:14.540Z,97692.92
2023-03-11T07:20:18.945Z,97723.05
2023-03-11T07:35:22.349Z,97744.34
2023-03-11T07:50:25.968Z,97770.63
2023-03-11T08:05:34.387Z,97809.48
2023-03-11T08:20:39.149Z,97846.95
2023-03-11T08:35:42.587Z,97875.67
2023-03-11T08:50:53.728Z,97903.52
2023-03-11T09:05:59.268Z,97957.73
2023-03-11T09:21:02.784Z,97989.31
2023-03-11T09:36:07.229Z,98025.31
2023-03-11T09:51:17.505Z,98056.65
2023-03-11T10:06:30.237Z,98093.69
2023-03-11T10:22:25.705Z,98125.02
2023-03-11T10:37:49.783Z,98162.79
2023-03-11T10:53:10.210Z,98191.83
2023-03-11T11:08:17.414Z,98221.60
2023-03-11T11:23:32.240Z,98250.05
2023-03-11T11:38:35.840Z,98293.96
2023-03-11T11:53:56.009Z,98320.38
2023-03-11T12:09:24.471Z,98343.02
2023-03-11T12:24:56.273Z,98370.17
2023-03-11T12:40:02.276Z,98393.92
2023-03-11T12:55:15.502Z,98421.66
2023-03-11T13:10:38.873Z,98458.45
2023-03-11T13:26:07.851Z,98505.42
2023-03-11T13:41:28.252Z,98534.58
2023-03-11T13:56:34.407Z,98554.45
2023-03-11T14:11:40.248Z,98586.08
2023-03-11T14:26:44.652Z,98620.09
2023-03-11T14:41:48.395Z,98661.37
2023-03-11T14:57:06.992Z,98679.13
2023-03-11T15:12:31.645Z,98708.15
2023-03-11T15:27:38.782Z,98732.63
2023-03-11T15:42:52.780Z,98757.42
2023-03-11T15:58:06.892Z,98778.86
2023-03-11T16:13:15.655Z,98807.45
2023-03-11T16:28:19.229Z,98849.69
2023-03-11T16:43:23.550Z,98881.68
2023-03-11T16:58:26.976Z,98900.92
2023-03-11T17:13:30.343Z,98929.42
2023-03-11T17:28:35.035Z,98963.48
2023-03-11T17:43:38.754Z,98986.15
2023-03-11T17:58:42.227Z,98998.43
2023-03-11T18:13:46.286Z,99022.54
2023-03-11T18:28:52.993Z,99039.61
2023-03-11T18:44:00.035Z,99049.31
2023-03-11T18:59:03.415Z,99063.53
2023-03-11T19:14:09.222Z,99078.02
2023-03-11T19:29:14.495Z,99103.66
2023-03-11T19:44:18.028Z,99131.42
2023-03-11T19:59:22.046Z,99144.02
2023-03-11T20:14:25.942Z,99146.10
2023-03-11T20:29:29.280Z,99157.40
2023-03-11T20:44:32.541Z,99180.83
2023-03-11T20:59:35.891Z,99179.45
2023-03-11T21:14:39.252Z,99184.73
2023-03-11T21:29:44.049Z,99178.79
2023-03-11T21:44:47.407Z,99160.25
2023-03-11T21:59:50.621Z,99164.36
2023-03-11T22:14:53.952Z,99158.09
2023-03-11T22:29:57.202Z,99159.13
2023-03-11T22:45:00.480Z,99154.86
2023-03-11T23:00:09.122Z,99152.91
2023-03-11T23:15:16.208Z,99148.53
2023-03-11T23:30:19.437Z,99144.82
2023-03-11T23:45:23.007Z,99133.58
